Airfield :
LOGIN :

Register | Disclaimer

   EN    FR    IT 

 










Legend :    VFR   Marginal VFR   IFR   Intensive IFR   Very Intensive IFR
Visi :
Ceiling :
>= 8 km
>= 3000ft
5 to 8 km
1000 to 3000 ft
1500m to 5 km
500 to 1000 ft
800 to 1500m
200 to 500 ft
< 800m
< 200 ft
Symbols :   Thunderstorms  Fog  Heavy snow  Heavy precipitations  Wind > 20 kt
SIGMETs :     Misc.  Thunderstorms  Icing  Turbulence  Mountain Waves  Volcanic Ashes







- Airport Elevation : 461 ft
- IATA code : WIE


ETOU - Wiesbaden Army

CURRENT METAR :
  • 210256Z AUTO 00000KT 9999 CLR 07/06 A3000 RMK AO2 VIS 1600 RWY07 SLP162 T00690063 57008 $

EXPIRED METARs :
  • 210156Z AUTO 00000KT 9999 BKN140 OVC170 08/07 A3001 RMK AO2 VIS 2200 RWY07 SLP165 T00810072 $
  • 210056Z AUTO 00000KT 9999 FEW150 OVC190 07/07 A3002 RMK AO2 VIS 2400 RWY07 SLP170 T00720065 $

TAF AMD TAF ETOU
Valid from the 20 at 18:00 until the 21 at 17:00 UTC


201830Z 2018/2117 23012KT 9999 SCT040 QNH2992INS
BECMG 2105/2106 20006KT 8000 BR BKN015 BKN040 620509 621404 QNH2991INS
TEMPO 2107/2110 BKN010
BECMG 2109/2110 23012KT 9000 -SHRA BKN015 BKN040 620509 621404 QNH2990INS TX19/2113Z TN08/2100Z LAST NO AMDS AFT 2018 NEXT 2103
No reported NOTAMs for that airfield.



MET'MAP, your aeronautical weather chart ! - Copyright ORBIFLY December 2007 - Disclaimer

ORBIFLY MET'MAP TEAM :

Programming & Development : Alexandra Zaïnal
Concept & Development : Baudouin d'Aumeries
Co-Development & Prog : Marc-Olivier Méhu
Technical & hardware support : Manuel Goepfert

Contact : metmap@orbifly.com




SOURCES & CREDITS :

   NOAA